sensor_id;sensor_type;location;lat;lon;timestamp;temperature;humidity
39079;DHT22;24829;49.208;12.080;2023-08-31T00:01:41;14.50;99.90
39079;DHT22;24829;49.208;12.080;2023-08-31T00:04:07;14.50;99.90
39079;DHT22;24829;49.208;12.080;2023-08-31T00:06:34;14.50;99.90
39079;DHT22;24829;49.208;12.080;2023-08-31T00:08:59;14.50;99.90
39079;DHT22;24829;49.208;12.080;2023-08-31T00:11:25;14.50;99.90
39079;DHT22;24829;49.208;12.080;2023-08-31T00:13:51;14.40;99.90
39079;DHT22;24829;49.208;12.080;2023-08-31T00:16:17;14.40;99.90
39079;DHT22;24829;49.208;12.080;2023-08-31T00:18:43;14.50;99.90
39079;DHT22;24829;49.208;12.080;2023-08-31T00:21:10;14.50;99.90
39079;DHT22;24829;49.208;12.080;2023-08-31T00:23:36;14.40;99.90
39079;DHT22;24829;49.208;12.080;2023-08-31T00:26:02;14.40;99.90
39079;DHT22;24829;49.208;12.080;2023-08-31T00:28:28;14.50;99.90
39079;DHT22;24829;49.208;12.080;2023-08-31T00:30:54;14.40;99.90
39079;DHT22;24829;49.208;12.080;2023-08-31T00:33:19;14.40;99.90
39079;DHT22;24829;49.208;12.080;2023-08-31T00:35:45;14.50;99.90
39079;DHT22;24829;49.208;12.080;2023-08-31T00:38:14;14.40;99.90
39079;DHT22;24829;49.208;12.080;2023-08-31T00:40:43;14.40;99.90
39079;DHT22;24829;49.208;12.080;2023-08-31T00:43:13;14.40;99.90
39079;DHT22;24829;49.208;12.080;2023-08-31T00:45:44;14.30;99.90
39079;DHT22;24829;49.208;12.080;2023-08-31T00:48:11;14.20;99.90
39079;DHT22;24829;49.208;12.080;2023-08-31T00:50:37;14.20;99.90
39079;DHT22;24829;49.208;12.080;2023-08-31T00:53:03;14.10;99.90
39079;DHT22;24829;49.208;12.080;2023-08-31T00:55:29;14.10;99.90
39079;DHT22;24829;49.208;12.080;2023-08-31T00:57:55;14.10;99.90
39079;DHT22;24829;49.208;12.080;2023-08-31T01:00:23;14.10;99.90
39079;DHT22;24829;49.208;12.080;2023-08-31T01:03:01;14.10;99.90
39079;DHT22;24829;49.208;12.080;2023-08-31T01:08:20;14.10;99.90
39079;DHT22;24829;49.208;12.080;2023-08-31T01:13:47;14.10;99.90
39079;DHT22;24829;49.208;12.080;2023-08-31T01:16:14;14.10;99.90
39079;DHT22;24829;49.208;12.080;2023-08-31T01:18:41;14.10;99.90
39079;DHT22;24829;49.208;12.080;2023-08-31T01:23:52;14.00;99.90
39079;DHT22;24829;49.208;12.080;2023-08-31T01:26:19;14.00;99.90
39079;DHT22;24829;49.208;12.080;2023-08-31T01:28:46;14.00;99.90
39079;DHT22;24829;49.208;12.080;2023-08-31T01:31:12;13.90;99.90
39079;DHT22;24829;49.208;12.080;2023-08-31T01:33:37;13.90;99.90
39079;DHT22;24829;49.208;12.080;2023-08-31T01:36:12;13.90;99.90
39079;DHT22;24829;49.208;12.080;2023-08-31T01:38:42;13.80;99.90
39079;DHT22;24829;49.208;12.080;2023-08-31T01:41:11;13.90;99.90
39079;DHT22;24829;49.208;12.080;2023-08-31T01:43:40;13.80;99.90
39079;DHT22;24829;49.208;12.080;2023-08-31T01:46:07;13.80;99.90
39079;DHT22;24829;49.208;12.080;2023-08-31T01:48:39;13.90;99.90
39079;DHT22;24829;49.208;12.080;2023-08-31T01:51:06;13.80;99.90
39079;DHT22;24829;49.208;12.080;2023-08-31T01:53:31;13.80;99.90
39079;DHT22;24829;49.208;12.080;2023-08-31T01:55:57;13.80;99.90
39079;DHT22;24829;49.208;12.080;2023-08-31T01:58:23;13.70;99.90
39079;DHT22;24829;49.208;12.080;2023-08-31T02:00:48;13.70;99.90
39079;DHT22;24829;49.208;12.080;2023-08-31T02:03:14;13.70;99.90
39079;DHT22;24829;49.208;12.080;2023-08-31T02:05:39;13.70;99.90
39079;DHT22;24829;49.208;12.080;2023-08-31T02:08:05;13.80;99.90
39079;DHT22;24829;49.208;12.080;2023-08-31T02:10:30;13.70;99.90
39079;DHT22;24829;49.208;12.080;2023-08-31T02:12:56;13.70;99.90
39079;DHT22;24829;49.208;12.080;2023-08-31T02:15:22;13.70;99.90
39079;DHT22;24829;49.208;12.080;2023-08-31T02:17:48;13.70;99.90
39079;DHT22;24829;49.208;12.080;2023-08-31T02:20:13;13.70;99.90
39079;DHT22;24829;49.208;12.080;2023-08-31T02:22:39;13.70;99.90
39079;DHT22;24829;49.208;12.080;2023-08-31T02:25:05;13.70;99.90
39079;DHT22;24829;49.208;12.080;2023-08-31T02:27:31;13.70;99.90
39079;DHT22;24829;49.208;12.080;2023-08-31T02:29:57;13.60;99.90
39079;DHT22;24829;49.208;12.080;2023-08-31T02:32:22;13.60;99.90
39079;DHT22;24829;49.208;12.080;2023-08-31T02:34:49;13.60;99.90
39079;DHT22;24829;49.208;12.080;2023-08-31T02:37:14;13.60;99.90
39079;DHT22;24829;49.208;12.080;2023-08-31T02:39:40;13.60;99.90
39079;DHT22;24829;49.208;12.080;2023-08-31T02:42:05;13.60;99.90
39079;DHT22;24829;49.208;12.080;2023-08-31T02:44:31;13.60;99.90
39079;DHT22;24829;49.208;12.080;2023-08-31T02:46:57;13.60;99.90
39079;DHT22;24829;49.208;12.080;2023-08-31T02:49:23;13.60;99.90
39079;DHT22;24829;49.208;12.080;2023-08-31T02:51:48;13.50;99.90
39079;DHT22;24829;49.208;12.080;2023-08-31T02:54:15;13.50;99.90
39079;DHT22;24829;49.208;12.080;2023-08-31T02:56:40;13.60;99.90
39079;DHT22;24829;49.208;12.080;2023-08-31T02:59:06;13.50;99.90
39079;DHT22;24829;49.208;12.080;2023-08-31T03:01:31;13.60;99.90
39079;DHT22;24829;49.208;12.080;2023-08-31T03:03:57;13.50;99.90
39079;DHT22;24829;49.208;12.080;2023-08-31T03:06:23;13.60;99.90
39079;DHT22;24829;49.208;12.080;2023-08-31T03:08:48;13.50;99.90
39079;DHT22;24829;49.208;12.080;2023-08-31T03:11:14;13.50;99.90
39079;DHT22;24829;49.208;12.080;2023-08-31T03:13:40;13.50;99.90
39079;DHT22;24829;49.208;12.080;2023-08-31T03:16:06;13.60;99.90
39079;DHT22;24829;49.208;12.080;2023-08-31T03:18:32;13.50;99.90
39079;DHT22;24829;49.208;12.080;2023-08-31T03:20:58;13.50;99.90
39079;DHT22;24829;49.208;12.080;2023-08-31T03:23:24;13.50;99.90
39079;DHT22;24829;49.208;12.080;2023-08-31T03:25:50;13.50;99.90
39079;DHT22;24829;49.208;12.080;2023-08-31T03:28:16;13.50;99.90
39079;DHT22;24829;49.208;12.080;2023-08-31T03:30:41;13.50;99.90
39079;DHT22;24829;49.208;12.080;2023-08-31T03:33:10;13.50;99.90
39079;DHT22;24829;49.208;12.080;2023-08-31T03:35:36;13.40;99.90
39079;DHT22;24829;49.208;12.080;2023-08-31T03:38:01;13.40;99.90
39079;DHT22;24829;49.208;12.080;2023-08-31T03:40:27;13.30;99.90
39079;DHT22;24829;49.208;12.080;2023-08-31T03:42:52;13.30;99.90
39079;DHT22;24829;49.208;12.080;2023-08-31T03:45:19;13.30;99.90
39079;DHT22;24829;49.208;12.080;2023-08-31T03:47:45;13.30;99.90
39079;DHT22;24829;49.208;12.080;2023-08-31T03:50:11;13.30;99.90
39079;DHT22;24829;49.208;12.080;2023-08-31T03:52:36;13.30;99.90
39079;DHT22;24829;49.208;12.080;2023-08-31T03:55:02;13.30;99.90
39079;DHT22;24829;49.208;12.080;2023-08-31T03:57:28;13.20;99.90
39079;DHT22;24829;49.208;12.080;2023-08-31T03:59:53;13.20;99.90
39079;DHT22;24829;49.208;12.080;2023-08-31T04:02:19;13.20;99.90
39079;DHT22;24829;49.208;12.080;2023-08-31T04:04:44;13.20;99.90
39079;DHT22;24829;49.208;12.080;2023-08-31T04:07:10;13.20;99.90
39079;DHT22;24829;49.208;12.080;2023-08-31T04:09:35;13.20;99.90
39079;DHT22;24829;49.208;12.080;2023-08-31T04:12:01;13.20;99.90
39079;DHT22;24829;49.208;12.080;2023-08-31T04:14:27;13.20;99.90
39079;DHT22;24829;49.208;12.080;2023-08-31T04:16:54;13.20;99.90
39079;DHT22;24829;49.208;12.080;2023-08-31T04:19:20;13.30;99.90
39079;DHT22;24829;49.208;12.080;2023-08-31T04:21:45;13.30;99.90
39079;DHT22;24829;49.208;12.080;2023-08-31T04:24:11;13.30;99.90
39079;DHT22;24829;49.208;12.080;2023-08-31T04:26:37;13.30;99.90
39079;DHT22;24829;49.208;12.080;2023-08-31T04:29:03;13.30;99.90
39079;DHT22;24829;49.208;12.080;2023-08-31T04:31:31;13.30;99.90
39079;DHT22;24829;49.208;12.080;2023-08-31T04:33:56;13.30;99.90
39079;DHT22;24829;49.208;12.080;2023-08-31T04:36:22;13.30;99.90
39079;DHT22;24829;49.208;12.080;2023-08-31T04:38:48;13.30;99.90
39079;DHT22;24829;49.208;12.080;2023-08-31T04:41:14;13.20;99.90
39079;DHT22;24829;49.208;12.080;2023-08-31T04:43:40;13.30;99.90
39079;DHT22;24829;49.208;12.080;2023-08-31T04:46:06;13.20;99.90
39079;DHT22;24829;49.208;12.080;2023-08-31T04:48:32;13.20;99.90
39079;DHT22;24829;49.208;12.080;2023-08-31T04:50:58;13.20;99.90
39079;DHT22;24829;49.208;12.080;2023-08-31T04:53:24;13.20;99.90
39079;DHT22;24829;49.208;12.080;2023-08-31T04:55:49;13.20;99.90
39079;DHT22;24829;49.208;12.080;2023-08-31T04:58:15;13.20;99.90
39079;DHT22;24829;49.208;12.080;2023-08-31T05:00:41;13.20;99.90
39079;DHT22;24829;49.208;12.080;2023-08-31T05:03:06;13.10;99.90
39079;DHT22;24829;49.208;12.080;2023-08-31T05:05:32;13.10;99.90
39079;DHT22;24829;49.208;12.080;2023-08-31T05:07:57;13.00;99.90
39079;DHT22;24829;49.208;12.080;2023-08-31T05:10:24;13.00;99.90
39079;DHT22;24829;49.208;12.080;2023-08-31T05:12:49;13.10;99.90
39079;DHT22;24829;49.208;12.080;2023-08-31T05:15:15;13.10;99.90
39079;DHT22;24829;49.208;12.080;2023-08-31T05:17:41;13.30;99.90
39079;DHT22;24829;49.208;12.080;2023-08-31T05:20:07;13.50;99.90
39079;DHT22;24829;49.208;12.080;2023-08-31T05:22:35;13.60;99.90
39079;DHT22;24829;49.208;12.080;2023-08-31T05:25:01;13.70;99.90
39079;DHT22;24829;49.208;12.080;2023-08-31T05:27:26;13.70;99.90
39079;DHT22;24829;49.208;12.080;2023-08-31T05:29:52;13.90;99.90
39079;DHT22;24829;49.208;12.080;2023-08-31T05:32:17;14.10;99.90
39079;DHT22;24829;49.208;12.080;2023-08-31T05:34:43;14.60;99.90
39079;DHT22;24829;49.208;12.080;2023-08-31T05:37:09;15.10;99.90
39079;DHT22;24829;49.208;12.080;2023-08-31T05:39:34;15.70;99.90
39079;DHT22;24829;49.208;12.080;2023-08-31T05:42:00;16.30;99.90
39079;DHT22;24829;49.208;12.080;2023-08-31T05:44:26;16.70;99.90
39079;DHT22;24829;49.208;12.080;2023-08-31T05:46:52;17.20;99.90
39079;DHT22;24829;49.208;12.080;2023-08-31T05:49:17;17.60;99.90
39079;DHT22;24829;49.208;12.080;2023-08-31T05:51:43;18.00;99.90
39079;DHT22;24829;49.208;12.080;2023-08-31T05:54:08;18.30;99.90
39079;DHT22;24829;49.208;12.080;2023-08-31T05:56:38;18.50;99.90
39079;DHT22;24829;49.208;12.080;2023-08-31T05:59:05;18.60;99.90
39079;DHT22;24829;49.208;12.080;2023-08-31T06:01:31;18.70;99.90
39079;DHT22;24829;49.208;12.080;2023-08-31T06:03:57;18.60;99.90
39079;DHT22;24829;49.208;12.080;2023-08-31T06:06:22;18.80;99.90
39079;DHT22;24829;49.208;12.080;2023-08-31T06:08:48;18.90;99.90
39079;DHT22;24829;49.208;12.080;2023-08-31T06:11:14;19.10;99.90
39079;DHT22;24829;49.208;12.080;2023-08-31T06:13:40;19.30;99.90
39079;DHT22;24829;49.208;12.080;2023-08-31T06:16:05;19.40;99.90
39079;DHT22;24829;49.208;12.080;2023-08-31T06:18:31;19.50;99.90
39079;DHT22;24829;49.208;12.080;2023-08-31T06:20:57;19.60;99.90
39079;DHT22;24829;49.208;12.080;2023-08-31T06:23:22;19.70;99.90
39079;DHT22;24829;49.208;12.080;2023-08-31T06:25:48;19.60;99.90
39079;DHT22;24829;49.208;12.080;2023-08-31T06:28:13;19.30;99.90
39079;DHT22;24829;49.208;12.080;2023-08-31T06:30:40;19.00;99.90
39079;DHT22;24829;49.208;12.080;2023-08-31T06:33:10;19.10;99.90
39079;DHT22;24829;49.208;12.080;2023-08-31T06:35:35;19.20;99.90
39079;DHT22;24829;49.208;12.080;2023-08-31T06:38:01;19.20;99.90
39079;DHT22;24829;49.208;12.080;2023-08-31T06:40:26;19.30;99.90
39079;DHT22;24829;49.208;12.080;2023-08-31T06:42:52;18.90;99.90
39079;DHT22;24829;49.208;12.080;2023-08-31T06:45:17;18.90;99.90
39079;DHT22;24829;49.208;12.080;2023-08-31T06:47:43;18.80;99.90
39079;DHT22;24829;49.208;12.080;2023-08-31T06:50:09;18.90;99.90
39079;DHT22;24829;49.208;12.080;2023-08-31T06:52:34;19.00;99.90
39079;DHT22;24829;49.208;12.080;2023-08-31T06:55:00;18.90;99.90
39079;DHT22;24829;49.208;12.080;2023-08-31T06:57:27;18.60;99.90
39079;DHT22;24829;49.208;12.080;2023-08-31T06:59:53;18.60;99.90
39079;DHT22;24829;49.208;12.080;2023-08-31T07:02:19;18.40;99.90
39079;DHT22;24829;49.208;12.080;2023-08-31T07:04:45;18.20;99.90
39079;DHT22;24829;49.208;12.080;2023-08-31T07:07:11;18.20;99.90
39079;DHT22;24829;49.208;12.080;2023-08-31T07:09:41;18.00;99.90
39079;DHT22;24829;49.208;12.080;2023-08-31T07:12:07;17.90;99.90
39079;DHT22;24829;49.208;12.080;2023-08-31T07:14:32;17.70;99.90
39079;DHT22;24829;49.208;12.080;2023-08-31T07:16:58;17.50;99.90
39079;DHT22;24829;49.208;12.080;2023-08-31T07:19:23;17.50;99.90
39079;DHT22;24829;49.208;12.080;2023-08-31T07:21:49;17.40;99.90
39079;DHT22;24829;49.208;12.080;2023-08-31T07:24:14;17.30;99.90
39079;DHT22;24829;49.208;12.080;2023-08-31T07:26:40;17.10;99.90
39079;DHT22;24829;49.208;12.080;2023-08-31T07:29:05;17.10;99.90
39079;DHT22;24829;49.208;12.080;2023-08-31T07:31:31;17.20;99.90
39079;DHT22;24829;49.208;12.080;2023-08-31T07:33:57;17.50;99.90
39079;DHT22;24829;49.208;12.080;2023-08-31T07:36:23;17.80;99.90
39079;DHT22;24829;49.208;12.080;2023-08-31T07:38:49;18.10;99.90
39079;DHT22;24829;49.208;12.080;2023-08-31T07:41:14;18.40;99.90
39079;DHT22;24829;49.208;12.080;2023-08-31T07:43:40;18.70;99.90
39079;DHT22;24829;49.208;12.080;2023-08-31T07:46:05;18.90;99.90
39079;DHT22;24829;49.208;12.080;2023-08-31T07:48:31;19.00;99.90
39079;DHT22;24829;49.208;12.080;2023-08-31T07:50:57;19.00;99.90
39079;DHT22;24829;49.208;12.080;2023-08-31T07:53:22;18.90;99.90
39079;DHT22;24829;49.208;12.080;2023-08-31T07:55:54;19.10;99.90
39079;DHT22;24829;49.208;12.080;2023-08-31T07:58:23;19.20;99.90
39079;DHT22;24829;49.208;12.080;2023-08-31T08:00:52;19.40;99.90
39079;DHT22;24829;49.208;12.080;2023-08-31T08:03:18;19.30;99.90
39079;DHT22;24829;49.208;12.080;2023-08-31T08:05:43;19.00;99.90
39079;DHT22;24829;49.208;12.080;2023-08-31T08:08:09;18.60;99.90
39079;DHT22;24829;49.208;12.080;2023-08-31T08:10:35;18.60;99.90
39079;DHT22;24829;49.208;12.080;2023-08-31T08:13:00;18.50;99.90
39079;DHT22;24829;49.208;12.080;2023-08-31T08:15:26;18.40;99.90
39079;DHT22;24829;49.208;12.080;2023-08-31T08:17:51;18.40;99.90
39079;DHT22;24829;49.208;12.080;2023-08-31T08:20:19;18.40;99.90
39079;DHT22;24829;49.208;12.080;2023-08-31T08:22:44;18.50;99.90
39079;DHT22;24829;49.208;12.080;2023-08-31T08:25:11;18.50;99.90
39079;DHT22;24829;49.208;12.080;2023-08-31T08:27:37;18.80;99.90
39079;DHT22;24829;49.208;12.080;2023-08-31T08:30:03;19.10;99.90
39079;DHT22;24829;49.208;12.080;2023-08-31T08:32:29;19.30;99.90
39079;DHT22;24829;49.208;12.080;2023-08-31T08:34:55;19.60;99.90
39079;DHT22;24829;49.208;12.080;2023-08-31T08:37:20;19.90;99.90
39079;DHT22;24829;49.208;12.080;2023-08-31T08:39:49;20.10;99.90
39079;DHT22;24829;49.208;12.080;2023-08-31T08:42:17;20.30;99.90
39079;DHT22;24829;49.208;12.080;2023-08-31T08:44:43;20.30;99.90
39079;DHT22;24829;49.208;12.080;2023-08-31T08:47:11;20.30;99.90
39079;DHT22;24829;49.208;12.080;2023-08-31T08:49:37;20.40;99.90
39079;DHT22;24829;49.208;12.080;2023-08-31T08:52:04;20.40;99.90
39079;DHT22;24829;49.208;12.080;2023-08-31T08:54:30;20.30;99.90
39079;DHT22;24829;49.208;12.080;2023-08-31T08:56:56;20.40;99.90
39079;DHT22;24829;49.208;12.080;2023-08-31T08:59:22;20.40;99.90
39079;DHT22;24829;49.208;12.080;2023-08-31T09:01:48;20.60;99.90
39079;DHT22;24829;49.208;12.080;2023-08-31T09:04:14;20.70;99.90
39079;DHT22;24829;49.208;12.080;2023-08-31T09:06:40;20.80;99.90
39079;DHT22;24829;49.208;12.080;2023-08-31T09:09:08;20.90;99.90
39079;DHT22;24829;49.208;12.080;2023-08-31T09:11:34;20.70;99.90
39079;DHT22;24829;49.208;12.080;2023-08-31T09:14:15;20.50;99.90
39079;DHT22;24829;49.208;12.080;2023-08-31T09:16:48;20.30;99.90
39079;DHT22;24829;49.208;12.080;2023-08-31T09:19:22;20.00;99.90
39079;DHT22;24829;49.208;12.080;2023-08-31T09:21:49;19.90;99.90
39079;DHT22;24829;49.208;12.080;2023-08-31T09:24:15;20.00;99.90
39079;DHT22;24829;49.208;12.080;2023-08-31T09:26:54;20.00;99.90
39079;DHT22;24829;49.208;12.080;2023-08-31T09:29:20;20.10;99.90
39079;DHT22;24829;49.208;12.080;2023-08-31T09:31:46;20.00;99.90
39079;DHT22;24829;49.208;12.080;2023-08-31T09:34:14;19.90;99.90
39079;DHT22;24829;49.208;12.080;2023-08-31T09:36:40;20.10;99.90
39079;DHT22;24829;49.208;12.080;2023-08-31T09:39:06;20.20;99.90
39079;DHT22;24829;49.208;12.080;2023-08-31T09:41:32;20.20;99.90
39079;DHT22;24829;49.208;12.080;2023-08-31T09:44:19;20.30;99.90
39079;DHT22;24829;49.208;12.080;2023-08-31T09:46:45;20.10;99.90
39079;DHT22;24829;49.208;12.080;2023-08-31T09:49:16;19.90;99.90
39079;DHT22;24829;49.208;12.080;2023-08-31T09:51:46;19.80;99.90
39079;DHT22;24829;49.208;12.080;2023-08-31T09:54:16;19.60;99.90
39079;DHT22;24829;49.208;12.080;2023-08-31T09:56:43;19.40;99.90
39079;DHT22;24829;49.208;12.080;2023-08-31T09:59:14;19.30;99.90
39079;DHT22;24829;49.208;12.080;2023-08-31T10:01:42;19.30;99.90
39079;DHT22;24829;49.208;12.080;2023-08-31T10:04:08;19.40;99.90
39079;DHT22;24829;49.208;12.080;2023-08-31T10:06:39;19.40;99.90
39079;DHT22;24829;49.208;12.080;2023-08-31T10:09:05;19.50;99.90
39079;DHT22;24829;49.208;12.080;2023-08-31T10:11:32;19.70;99.90
39079;DHT22;24829;49.208;12.080;2023-08-31T10:13:58;19.90;99.90
39079;DHT22;24829;49.208;12.080;2023-08-31T10:16:27;20.10;99.90
39079;DHT22;24829;49.208;12.080;2023-08-31T10:18:54;20.20;99.90
39079;DHT22;24829;49.208;12.080;2023-08-31T10:21:20;20.10;99.90
39079;DHT22;24829;49.208;12.080;2023-08-31T10:23:46;20.10;99.90
39079;DHT22;24829;49.208;12.080;2023-08-31T10:26:29;20.00;99.90
39079;DHT22;24829;49.208;12.080;2023-08-31T10:28:56;20.00;99.90
39079;DHT22;24829;49.208;12.080;2023-08-31T10:31:32;20.20;99.90
39079;DHT22;24829;49.208;12.080;2023-08-31T10:36:54;20.30;99.90
39079;DHT22;24829;49.208;12.080;2023-08-31T10:39:20;20.40;99.90
39079;DHT22;24829;49.208;12.080;2023-08-31T10:41:56;20.40;99.90
39079;DHT22;24829;49.208;12.080;2023-08-31T10:44:26;20.50;99.90
39079;DHT22;24829;49.208;12.080;2023-08-31T10:46:52;20.50;99.90
39079;DHT22;24829;49.208;12.080;2023-08-31T10:49:20;20.60;99.90
39079;DHT22;24829;49.208;12.080;2023-08-31T10:51:58;20.80;99.90
39079;DHT22;24829;49.208;12.080;2023-08-31T10:54:40;20.90;99.90
39079;DHT22;24829;49.208;12.080;2023-08-31T10:57:06;20.90;99.90
39079;DHT22;24829;49.208;12.080;2023-08-31T10:59:54;21.00;99.90
39079;DHT22;24829;49.208;12.080;2023-08-31T11:02:41;21.10;99.90
39079;DHT22;24829;49.208;12.080;2023-08-31T11:05:12;21.30;99.90
39079;DHT22;24829;49.208;12.080;2023-08-31T11:07:43;21.30;99.90
39079;DHT22;24829;49.208;12.080;2023-08-31T11:10:11;21.40;99.90
39079;DHT22;24829;49.208;12.080;2023-08-31T11:12:38;21.30;99.90
39079;DHT22;24829;49.208;12.080;2023-08-31T11:15:04;21.30;99.90
39079;DHT22;24829;49.208;12.080;2023-08-31T11:17:30;21.30;98.90
39079;DHT22;24829;49.208;12.080;2023-08-31T11:20:00;21.40;99.10
39079;DHT22;24829;49.208;12.080;2023-08-31T11:22:26;21.30;99.30
39079;DHT22;24829;49.208;12.080;2023-08-31T11:24:51;21.30;99.90
39079;DHT22;24829;49.208;12.080;2023-08-31T11:27:20;21.20;99.70
39079;DHT22;24829;49.208;12.080;2023-08-31T11:29:46;21.20;99.70
39079;DHT22;24829;49.208;12.080;2023-08-31T11:32:13;21.30;99.70
39079;DHT22;24829;49.208;12.080;2023-08-31T11:34:42;21.30;99.20
39079;DHT22;24829;49.208;12.080;2023-08-31T11:37:14;21.30;99.90
39079;DHT22;24829;49.208;12.080;2023-08-31T11:39:51;21.30;99.50
39079;DHT22;24829;49.208;12.080;2023-08-31T11:42:19;21.30;99.20
39079;DHT22;24829;49.208;12.080;2023-08-31T11:44:49;21.30;98.70
39079;DHT22;24829;49.208;12.080;2023-08-31T11:47:16;21.30;99.40
39079;DHT22;24829;49.208;12.080;2023-08-31T11:49:43;21.40;97.80
39079;DHT22;24829;49.208;12.080;2023-08-31T11:52:10;21.40;98.40
39079;DHT22;24829;49.208;12.080;2023-08-31T11:54:42;21.50;99.60
39079;DHT22;24829;49.208;12.080;2023-08-31T11:57:08;21.60;97.50
39079;DHT22;24829;49.208;12.080;2023-08-31T11:59:35;21.70;95.90
39079;DHT22;24829;49.208;12.080;2023-08-31T12:02:02;21.60;96.20
39079;DHT22;24829;49.208;12.080;2023-08-31T12:04:30;21.50;97.20
39079;DHT22;24829;49.208;12.080;2023-08-31T12:07:02;21.60;95.70
39079;DHT22;24829;49.208;12.080;2023-08-31T12:09:31;21.60;94.90
39079;DHT22;24829;49.208;12.080;2023-08-31T12:11:57;21.40;94.90
39079;DHT22;24829;49.208;12.080;2023-08-31T12:14:24;21.20;94.80
39079;DHT22;24829;49.208;12.080;2023-08-31T12:16:51;21.10;95.70
39079;DHT22;24829;49.208;12.080;2023-08-31T12:19:17;21.20;95.20
39079;DHT22;24829;49.208;12.080;2023-08-31T12:21:45;21.20;95.60
39079;DHT22;24829;49.208;12.080;2023-08-31T12:24:11;21.30;95.70
39079;DHT22;24829;49.208;12.080;2023-08-31T12:26:36;21.30;95.70
39079;DHT22;24829;49.208;12.080;2023-08-31T12:29:03;21.40;95.60
39079;DHT22;24829;49.208;12.080;2023-08-31T12:31:32;21.50;95.30
39079;DHT22;24829;49.208;12.080;2023-08-31T12:33:58;21.50;95.20
39079;DHT22;24829;49.208;12.080;2023-08-31T12:36:25;21.30;95.20
39079;DHT22;24829;49.208;12.080;2023-08-31T12:38:51;21.10;95.80
39079;DHT22;24829;49.208;12.080;2023-08-31T12:41:17;21.00;95.30
39079;DHT22;24829;49.208;12.080;2023-08-31T12:43:43;20.90;96.00
39079;DHT22;24829;49.208;12.080;2023-08-31T12:46:08;20.90;96.20
39079;DHT22;24829;49.208;12.080;2023-08-31T12:48:35;20.90;96.40
39079;DHT22;24829;49.208;12.080;2023-08-31T12:51:01;21.00;95.70
39079;DHT22;24829;49.208;12.080;2023-08-31T12:53:26;20.90;96.60
39079;DHT22;24829;49.208;12.080;2023-08-31T12:55:55;20.90;96.30
39079;DHT22;24829;49.208;12.080;2023-08-31T12:58:21;21.00;96.50
39079;DHT22;24829;49.208;12.080;2023-08-31T13:00:47;21.10;96.00
39079;DHT22;24829;49.208;12.080;2023-08-31T13:03:14;21.30;96.40
39079;DHT22;24829;49.208;12.080;2023-08-31T13:05:41;21.30;96.20
39079;DHT22;24829;49.208;12.080;2023-08-31T13:08:09;21.40;95.10
39079;DHT22;24829;49.208;12.080;2023-08-31T13:10:35;21.40;95.50
39079;DHT22;24829;49.208;12.080;2023-08-31T13:13:01;21.40;95.00
39079;DHT22;24829;49.208;12.080;2023-08-31T13:15:27;21.40;96.10
39079;DHT22;24829;49.208;12.080;2023-08-31T13:17:53;21.50;95.60
39079;DHT22;24829;49.208;12.080;2023-08-31T13:20:19;21.50;94.30
39079;DHT22;24829;49.208;12.080;2023-08-31T13:22:44;21.40;94.00
39079;DHT22;24829;49.208;12.080;2023-08-31T13:25:10;21.40;94.50
39079;DHT22;24829;49.208;12.080;2023-08-31T13:27:37;21.30;94.30
39079;DHT22;24829;49.208;12.080;2023-08-31T13:30:03;21.20;93.90
39079;DHT22;24829;49.208;12.080;2023-08-31T13:32:31;21.20;93.30
39079;DHT22;24829;49.208;12.080;2023-08-31T13:34:57;21.10;92.80
39079;DHT22;24829;49.208;12.080;2023-08-31T13:37:23;21.00;93.70
39079;DHT22;24829;49.208;12.080;2023-08-31T13:39:50;20.90;93.00
39079;DHT22;24829;49.208;12.080;2023-08-31T13:42:17;20.80;93.50
39079;DHT22;24829;49.208;12.080;2023-08-31T13:44:43;20.70;93.30
39079;DHT22;24829;49.208;12.080;2023-08-31T13:47:08;20.60;93.40
39079;DHT22;24829;49.208;12.080;2023-08-31T13:49:34;20.40;93.70
39079;DHT22;24829;49.208;12.080;2023-08-31T13:52:00;20.20;94.40
39079;DHT22;24829;49.208;12.080;2023-08-31T13:54:26;20.20;94.70
39079;DHT22;24829;49.208;12.080;2023-08-31T13:56:52;20.10;94.90
39079;DHT22;24829;49.208;12.080;2023-08-31T13:59:17;20.00;94.70
39079;DHT22;24829;49.208;12.080;2023-08-31T14:01:43;20.00;95.10
39079;DHT22;24829;49.208;12.080;2023-08-31T14:04:08;20.00;94.80
39079;DHT22;24829;49.208;12.080;2023-08-31T14:06:34;20.10;94.60
39079;DHT22;24829;49.208;12.080;2023-08-31T14:08:59;20.00;94.90
39079;DHT22;24829;49.208;12.080;2023-08-31T14:11:26;20.00;95.90
39079;DHT22;24829;49.208;12.080;2023-08-31T14:14:01;20.10;96.00
39079;DHT22;24829;49.208;12.080;2023-08-31T14:16:28;20.10;96.20
39079;DHT22;24829;49.208;12.080;2023-08-31T14:18:54;20.10;95.50
39079;DHT22;24829;49.208;12.080;2023-08-31T14:21:20;20.10;96.10
39079;DHT22;24829;49.208;12.080;2023-08-31T14:23:46;20.10;96.30
39079;DHT22;24829;49.208;12.080;2023-08-31T14:26:11;20.10;95.90
39079;DHT22;24829;49.208;12.080;2023-08-31T14:28:37;20.10;96.20
39079;DHT22;24829;49.208;12.080;2023-08-31T14:31:06;20.00;97.10
39079;DHT22;24829;49.208;12.080;2023-08-31T14:33:33;20.00;96.80
39079;DHT22;24829;49.208;12.080;2023-08-31T14:35:58;20.00;96.30
39079;DHT22;24829;49.208;12.080;2023-08-31T14:38:24;20.10;96.20
39079;DHT22;24829;49.208;12.080;2023-08-31T14:40:51;20.10;96.60
39079;DHT22;24829;49.208;12.080;2023-08-31T14:43:16;20.10;96.10
39079;DHT22;24829;49.208;12.080;2023-08-31T14:45:42;20.10;96.80
39079;DHT22;24829;49.208;12.080;2023-08-31T14:48:08;20.10;96.50
39079;DHT22;24829;49.208;12.080;2023-08-31T14:50:34;20.10;96.40
39079;DHT22;24829;49.208;12.080;2023-08-31T14:53:00;20.10;96.80
39079;DHT22;24829;49.208;12.080;2023-08-31T14:55:25;20.10;96.10
39079;DHT22;24829;49.208;12.080;2023-08-31T14:57:51;20.00;96.10
39079;DHT22;24829;49.208;12.080;2023-08-31T15:00:17;19.90;96.30
39079;DHT22;24829;49.208;12.080;2023-08-31T15:02:42;19.60;96.50
39079;DHT22;24829;49.208;12.080;2023-08-31T15:05:08;19.70;97.30
39079;DHT22;24829;49.208;12.080;2023-08-31T15:07:34;19.70;96.90
39079;DHT22;24829;49.208;12.080;2023-08-31T15:09:59;19.70;97.60
39079;DHT22;24829;49.208;12.080;2023-08-31T15:12:25;19.60;97.70
39079;DHT22;24829;49.208;12.080;2023-08-31T15:14:51;19.60;97.20
39079;DHT22;24829;49.208;12.080;2023-08-31T15:17:16;19.60;98.20
39079;DHT22;24829;49.208;12.080;2023-08-31T15:19:42;19.50;97.50
39079;DHT22;24829;49.208;12.080;2023-08-31T15:22:08;19.40;97.00
39079;DHT22;24829;49.208;12.080;2023-08-31T15:24:33;19.40;97.20